sensor_id;sensor_type;location;lat;lon;timestamp;temperature;humidity
48264;DHT22;34086;51.076;13.722;2023-04-08T00:00:51;5.20;99.90
48264;DHT22;34086;51.076;13.722;2023-04-08T00:01:52;5.20;99.90
48264;DHT22;34086;51.076;13.722;2023-04-08T00:02:53;5.20;99.90
48264;DHT22;34086;51.076;13.722;2023-04-08T00:03:53;5.20;99.90
48264;DHT22;34086;51.076;13.722;2023-04-08T00:04:54;5.20;99.90
48264;DHT22;34086;51.076;13.722;2023-04-08T00:05:55;5.20;99.90
48264;DHT22;34086;51.076;13.722;2023-04-08T00:06:55;5.20;99.90
48264;DHT22;34086;51.076;13.722;2023-04-08T00:07:56;5.20;99.90
48264;DHT22;34086;51.076;13.722;2023-04-08T00:08:57;5.20;99.90
48264;DHT22;34086;51.076;13.722;2023-04-08T00:09:58;5.30;99.90
48264;DHT22;34086;51.076;13.722;2023-04-08T00:10:58;5.30;99.90
48264;DHT22;34086;51.076;13.722;2023-04-08T00:11:59;5.30;99.90
48264;DHT22;34086;51.076;13.722;2023-04-08T00:13:00;5.30;99.90
48264;DHT22;34086;51.076;13.722;2023-04-08T00:14:02;5.30;99.90
48264;DHT22;34086;51.076;13.722;2023-04-08T00:15:02;5.30;99.90
48264;DHT22;34086;51.076;13.722;2023-04-08T00:16:03;5.30;99.90
48264;DHT22;34086;51.076;13.722;2023-04-08T00:17:04;5.30;99.90
48264;DHT22;34086;51.076;13.722;2023-04-08T00:18:06;5.30;99.90
48264;DHT22;34086;51.076;13.722;2023-04-08T00:19:06;5.30;99.90
48264;DHT22;34086;51.076;13.722;2023-04-08T00:20:07;5.30;99.90
48264;DHT22;34086;51.076;13.722;2023-04-08T00:21:08;5.30;99.90
48264;DHT22;34086;51.076;13.722;2023-04-08T00:22:09;5.30;99.90
48264;DHT22;34086;51.076;13.722;2023-04-08T00:23:10;5.40;99.90
48264;DHT22;34086;51.076;13.722;2023-04-08T00:24:10;5.40;99.90
48264;DHT22;34086;51.076;13.722;2023-04-08T00:25:11;5.40;99.90
48264;DHT22;34086;51.076;13.722;2023-04-08T00:26:12;5.40;99.90
48264;DHT22;34086;51.076;13.722;2023-04-08T00:27:14;5.40;99.90
48264;DHT22;34086;51.076;13.722;2023-04-08T00:28:14;5.40;99.90
48264;DHT22;34086;51.076;13.722;2023-04-08T00:29:15;5.40;99.90
48264;DHT22;34086;51.076;13.722;2023-04-08T00:30:16;5.40;99.90
48264;DHT22;34086;51.076;13.722;2023-04-08T00:31:19;5.40;99.90
48264;DHT22;34086;51.076;13.722;2023-04-08T00:32:20;5.50;99.90
48264;DHT22;34086;51.076;13.722;2023-04-08T00:33:20;5.40;99.90
48264;DHT22;34086;51.076;13.722;2023-04-08T00:34:21;5.40;99.90
48264;DHT22;34086;51.076;13.722;2023-04-08T00:35:22;5.40;99.90
48264;DHT22;34086;51.076;13.722;2023-04-08T00:36:22;5.40;99.90
48264;DHT22;34086;51.076;13.722;2023-04-08T00:37:26;5.40;99.90
48264;DHT22;34086;51.076;13.722;2023-04-08T00:38:26;5.40;99.90
48264;DHT22;34086;51.076;13.722;2023-04-08T00:39:27;5.40;99.90
48264;DHT22;34086;51.076;13.722;2023-04-08T00:40:28;5.50;99.90
48264;DHT22;34086;51.076;13.722;2023-04-08T00:41:28;5.40;99.90
48264;DHT22;34086;51.076;13.722;2023-04-08T00:42:30;5.40;99.90
48264;DHT22;34086;51.076;13.722;2023-04-08T00:43:31;5.50;99.90
48264;DHT22;34086;51.076;13.722;2023-04-08T00:44:32;5.40;99.90
48264;DHT22;34086;51.076;13.722;2023-04-08T00:45:33;5.50;99.90
48264;DHT22;34086;51.076;13.722;2023-04-08T00:46:35;5.50;99.90
48264;DHT22;34086;51.076;13.722;2023-04-08T00:47:37;5.50;99.90
48264;DHT22;34086;51.076;13.722;2023-04-08T00:48:39;5.60;99.90
48264;DHT22;34086;51.076;13.722;2023-04-08T00:49:40;5.60;99.90
48264;DHT22;34086;51.076;13.722;2023-04-08T00:50:42;5.50;99.90
48264;DHT22;34086;51.076;13.722;2023-04-08T00:51:43;5.50;99.90
48264;DHT22;34086;51.076;13.722;2023-04-08T00:52:43;5.50;99.90
48264;DHT22;34086;51.076;13.722;2023-04-08T00:53:44;5.60;99.90
48264;DHT22;34086;51.076;13.722;2023-04-08T00:54:46;5.60;99.90
48264;DHT22;34086;51.076;13.722;2023-04-08T00:55:46;5.60;99.90
48264;DHT22;34086;51.076;13.722;2023-04-08T00:56:47;5.50;99.90
48264;DHT22;34086;51.076;13.722;2023-04-08T00:57:48;5.50;99.90
48264;DHT22;34086;51.076;13.722;2023-04-08T00:58:49;5.50;99.90
48264;DHT22;34086;51.076;13.722;2023-04-08T00:59:53;5.50;99.90
48264;DHT22;34086;51.076;13.722;2023-04-08T01:00:59;5.50;99.90
48264;DHT22;34086;51.076;13.722;2023-04-08T01:02:23;5.50;99.90
48264;DHT22;34086;51.076;13.722;2023-04-08T01:03:38;5.50;99.90
48264;DHT22;34086;51.076;13.722;2023-04-08T01:05:04;5.50;99.90
48264;DHT22;34086;51.076;13.722;2023-04-08T01:06:14;5.50;99.90
48264;DHT22;34086;51.076;13.722;2023-04-08T01:07:24;5.50;99.90
48264;DHT22;34086;51.076;13.722;2023-04-08T01:08:28;5.50;99.90
48264;DHT22;34086;51.076;13.722;2023-04-08T01:09:32;5.50;99.90
48264;DHT22;34086;51.076;13.722;2023-04-08T01:10:36;5.50;99.90
48264;DHT22;34086;51.076;13.722;2023-04-08T01:11:43;5.50;99.90
48264;DHT22;34086;51.076;13.722;2023-04-08T01:12:56;5.60;99.90
48264;DHT22;34086;51.076;13.722;2023-04-08T01:13:57;5.60;99.90
48264;DHT22;34086;51.076;13.722;2023-04-08T01:15:05;5.60;99.90
48264;DHT22;34086;51.076;13.722;2023-04-08T01:16:13;5.60;99.90
48264;DHT22;34086;51.076;13.722;2023-04-08T01:17:14;5.50;99.90
48264;DHT22;34086;51.076;13.722;2023-04-08T01:18:18;5.50;99.90
48264;DHT22;34086;51.076;13.722;2023-04-08T01:19:27;5.50;99.90
48264;DHT22;34086;51.076;13.722;2023-04-08T01:20:28;5.50;99.90
48264;DHT22;34086;51.076;13.722;2023-04-08T01:21:31;5.60;99.90
48264;DHT22;34086;51.076;13.722;2023-04-08T01:22:57;5.60;99.90
48264;DHT22;34086;51.076;13.722;2023-04-08T01:24:10;5.60;99.90
48264;DHT22;34086;51.076;13.722;2023-04-08T01:25:20;5.60;99.90
48264;DHT22;34086;51.076;13.722;2023-04-08T01:26:24;5.60;99.90
48264;DHT22;34086;51.076;13.722;2023-04-08T01:27:27;5.60;99.90
48264;DHT22;34086;51.076;13.722;2023-04-08T01:28:30;5.60;99.90
48264;DHT22;34086;51.076;13.722;2023-04-08T01:29:34;5.60;99.90
48264;DHT22;34086;51.076;13.722;2023-04-08T01:30:37;5.60;99.90
48264;DHT22;34086;51.076;13.722;2023-04-08T01:31:38;5.60;99.90
48264;DHT22;34086;51.076;13.722;2023-04-08T01:32:42;5.60;99.90
48264;DHT22;34086;51.076;13.722;2023-04-08T01:33:44;5.60;99.90
48264;DHT22;34086;51.076;13.722;2023-04-08T01:34:46;5.60;99.90
48264;DHT22;34086;51.076;13.722;2023-04-08T01:35:47;5.60;99.90
48264;DHT22;34086;51.076;13.722;2023-04-08T01:36:48;5.60;99.90
48264;DHT22;34086;51.076;13.722;2023-04-08T01:37:50;5.60;99.90
48264;DHT22;34086;51.076;13.722;2023-04-08T01:38:51;5.60;99.90
48264;DHT22;34086;51.076;13.722;2023-04-08T01:39:53;5.60;99.90
48264;DHT22;34086;51.076;13.722;2023-04-08T01:40:54;5.70;99.90
48264;DHT22;34086;51.076;13.722;2023-04-08T01:41:56;5.70;99.90
48264;DHT22;34086;51.076;13.722;2023-04-08T01:43:00;5.70;99.90
48264;DHT22;34086;51.076;13.722;2023-04-08T01:44:02;5.70;99.90
48264;DHT22;34086;51.076;13.722;2023-04-08T01:45:05;5.70;99.90
48264;DHT22;34086;51.076;13.722;2023-04-08T01:46:07;5.70;99.90
48264;DHT22;34086;51.076;13.722;2023-04-08T01:47:11;5.70;99.90
48264;DHT22;34086;51.076;13.722;2023-04-08T01:48:14;5.70;99.90
48264;DHT22;34086;51.076;13.722;2023-04-08T01:49:15;5.70;99.90
48264;DHT22;34086;51.076;13.722;2023-04-08T01:50:16;5.70;99.90
48264;DHT22;34086;51.076;13.722;2023-04-08T01:51:17;5.70;99.90
48264;DHT22;34086;51.076;13.722;2023-04-08T01:52:19;5.70;99.90
48264;DHT22;34086;51.076;13.722;2023-04-08T01:53:22;5.70;99.90
48264;DHT22;34086;51.076;13.722;2023-04-08T01:54:22;5.70;99.90
48264;DHT22;34086;51.076;13.722;2023-04-08T01:55:23;5.70;99.90
48264;DHT22;34086;51.076;13.722;2023-04-08T01:56:27;5.70;99.90
48264;DHT22;34086;51.076;13.722;2023-04-08T01:57:31;5.60;99.90
48264;DHT22;34086;51.076;13.722;2023-04-08T01:58:41;5.60;99.90
48264;DHT22;34086;51.076;13.722;2023-04-08T01:59:42;5.70;99.90
48264;DHT22;34086;51.076;13.722;2023-04-08T02:00:44;5.70;99.90
48264;DHT22;34086;51.076;13.722;2023-04-08T02:01:48;5.70;99.90
48264;DHT22;34086;51.076;13.722;2023-04-08T02:02:49;5.60;99.90
48264;DHT22;34086;51.076;13.722;2023-04-08T02:03:52;5.60;99.90
48264;DHT22;34086;51.076;13.722;2023-04-08T02:04:57;5.70;99.90
48264;DHT22;34086;51.076;13.722;2023-04-08T02:05:58;5.70;99.90
48264;DHT22;34086;51.076;13.722;2023-04-08T02:07:00;5.70;99.90
48264;DHT22;34086;51.076;13.722;2023-04-08T02:08:01;5.60;99.90
48264;DHT22;34086;51.076;13.722;2023-04-08T02:09:01;5.70;99.90
48264;DHT22;34086;51.076;13.722;2023-04-08T02:10:03;5.60;99.90
48264;DHT22;34086;51.076;13.722;2023-04-08T02:11:04;5.70;99.90
48264;DHT22;34086;51.076;13.722;2023-04-08T02:12:05;5.60;99.90
48264;DHT22;34086;51.076;13.722;2023-04-08T02:13:07;5.60;99.90
48264;DHT22;34086;51.076;13.722;2023-04-08T02:14:07;5.60;99.90
48264;DHT22;34086;51.076;13.722;2023-04-08T02:15:08;5.70;99.90
48264;DHT22;34086;51.076;13.722;2023-04-08T02:16:17;5.70;99.90
48264;DHT22;34086;51.076;13.722;2023-04-08T02:17:33;5.60;99.90
48264;DHT22;34086;51.076;13.722;2023-04-08T02:18:36;5.60;99.90
48264;DHT22;34086;51.076;13.722;2023-04-08T02:19:45;5.60;99.90
48264;DHT22;34086;51.076;13.722;2023-04-08T02:20:52;5.70;99.90
48264;DHT22;34086;51.076;13.722;2023-04-08T02:22:04;5.70;99.90
48264;DHT22;34086;51.076;13.722;2023-04-08T02:23:15;5.70;99.90
48264;DHT22;34086;51.076;13.722;2023-04-08T02:24:18;5.70;99.90
48264;DHT22;34086;51.076;13.722;2023-04-08T02:25:24;5.70;99.90
48264;DHT22;34086;51.076;13.722;2023-04-08T02:26:25;5.70;99.90
48264;DHT22;34086;51.076;13.722;2023-04-08T02:27:33;5.70;99.90
48264;DHT22;34086;51.076;13.722;2023-04-08T02:28:35;5.70;99.90
48264;DHT22;34086;51.076;13.722;2023-04-08T02:29:36;5.60;99.90
48264;DHT22;34086;51.076;13.722;2023-04-08T02:30:45;5.70;99.90
48264;DHT22;34086;51.076;13.722;2023-04-08T02:31:49;5.60;99.90
48264;DHT22;34086;51.076;13.722;2023-04-08T02:32:51;5.60;99.90
48264;DHT22;34086;51.076;13.722;2023-04-08T02:33:53;5.60;99.90
48264;DHT22;34086;51.076;13.722;2023-04-08T02:34:55;5.70;99.90
48264;DHT22;34086;51.076;13.722;2023-04-08T02:35:57;5.70;99.90
48264;DHT22;34086;51.076;13.722;2023-04-08T02:36:58;5.70;99.90
48264;DHT22;34086;51.076;13.722;2023-04-08T02:37:58;5.70;99.90
48264;DHT22;34086;51.076;13.722;2023-04-08T02:38:59;5.70;99.90
48264;DHT22;34086;51.076;13.722;2023-04-08T02:40:00;5.70;99.90
48264;DHT22;34086;51.076;13.722;2023-04-08T02:41:00;5.70;99.90
48264;DHT22;34086;51.076;13.722;2023-04-08T02:42:03;5.70;99.90
48264;DHT22;34086;51.076;13.722;2023-04-08T02:43:03;5.70;99.90
48264;DHT22;34086;51.076;13.722;2023-04-08T02:44:04;5.70;99.90
48264;DHT22;34086;51.076;13.722;2023-04-08T02:45:06;5.70;99.90
48264;DHT22;34086;51.076;13.722;2023-04-08T02:46:07;5.80;99.90
48264;DHT22;34086;51.076;13.722;2023-04-08T02:47:10;5.70;99.90
48264;DHT22;34086;51.076;13.722;2023-04-08T02:48:11;5.80;99.90
48264;DHT22;34086;51.076;13.722;2023-04-08T02:49:11;5.80;99.90
48264;DHT22;34086;51.076;13.722;2023-04-08T02:50:12;5.80;99.90
48264;DHT22;34086;51.076;13.722;2023-04-08T02:51:12;5.80;99.90
48264;DHT22;34086;51.076;13.722;2023-04-08T02:52:13;5.80;99.90
48264;DHT22;34086;51.076;13.722;2023-04-08T02:53:13;5.80;99.90
48264;DHT22;34086;51.076;13.722;2023-04-08T02:54:15;5.80;99.90
48264;DHT22;34086;51.076;13.722;2023-04-08T02:55:15;5.80;99.90
48264;DHT22;34086;51.076;13.722;2023-04-08T02:56:16;5.80;99.90
48264;DHT22;34086;51.076;13.722;2023-04-08T02:57:17;5.80;99.90
48264;DHT22;34086;51.076;13.722;2023-04-08T02:58:17;5.80;99.90
48264;DHT22;34086;51.076;13.722;2023-04-08T02:59:18;5.80;99.90
48264;DHT22;34086;51.076;13.722;2023-04-08T03:00:19;5.80;99.90
48264;DHT22;34086;51.076;13.722;2023-04-08T03:01:19;5.80;99.90
48264;DHT22;34086;51.076;13.722;2023-04-08T03:02:20;5.80;99.90
48264;DHT22;34086;51.076;13.722;2023-04-08T03:03:20;5.80;99.90
48264;DHT22;34086;51.076;13.722;2023-04-08T03:04:28;5.80;99.90
48264;DHT22;34086;51.076;13.722;2023-04-08T03:05:29;5.80;99.90
48264;DHT22;34086;51.076;13.722;2023-04-08T03:06:29;5.80;99.90
48264;DHT22;34086;51.076;13.722;2023-04-08T03:07:31;5.80;99.90
48264;DHT22;34086;51.076;13.722;2023-04-08T03:08:32;5.80;99.90
48264;DHT22;34086;51.076;13.722;2023-04-08T03:09:33;5.80;99.90
48264;DHT22;34086;51.076;13.722;2023-04-08T03:10:33;5.80;99.90
48264;DHT22;34086;51.076;13.722;2023-04-08T03:11:34;5.80;99.90
48264;DHT22;34086;51.076;13.722;2023-04-08T03:12:35;5.80;99.90
48264;DHT22;34086;51.076;13.722;2023-04-08T03:13:35;5.80;99.90
48264;DHT22;34086;51.076;13.722;2023-04-08T03:14:36;5.80;99.90
48264;DHT22;34086;51.076;13.722;2023-04-08T03:15:36;5.80;99.90
48264;DHT22;34086;51.076;13.722;2023-04-08T03:16:37;5.80;99.90
48264;DHT22;34086;51.076;13.722;2023-04-08T03:17:38;5.80;99.90
48264;DHT22;34086;51.076;13.722;2023-04-08T03:18:38;5.80;99.90
48264;DHT22;34086;51.076;13.722;2023-04-08T03:19:39;5.80;99.90
48264;DHT22;34086;51.076;13.722;2023-04-08T03:20:39;5.80;99.90
48264;DHT22;34086;51.076;13.722;2023-04-08T03:21:40;5.90;99.90
48264;DHT22;34086;51.076;13.722;2023-04-08T03:22:41;5.90;99.90
48264;DHT22;34086;51.076;13.722;2023-04-08T03:23:41;5.90;99.90
48264;DHT22;34086;51.076;13.722;2023-04-08T03:24:42;5.90;99.90
48264;DHT22;34086;51.076;13.722;2023-04-08T03:25:42;5.90;99.90
48264;DHT22;34086;51.076;13.722;2023-04-08T03:26:43;5.90;99.90
48264;DHT22;34086;51.076;13.722;2023-04-08T03:27:44;5.90;99.90
48264;DHT22;34086;51.076;13.722;2023-04-08T03:28:44;5.90;99.90
48264;DHT22;34086;51.076;13.722;2023-04-08T03:29:45;5.90;99.90
48264;DHT22;34086;51.076;13.722;2023-04-08T03:30:46;5.80;99.90
48264;DHT22;34086;51.076;13.722;2023-04-08T03:31:46;5.90;99.90
48264;DHT22;34086;51.076;13.722;2023-04-08T03:32:47;5.80;99.90
48264;DHT22;34086;51.076;13.722;2023-04-08T03:33:47;5.90;99.90
48264;DHT22;34086;51.076;13.722;2023-04-08T03:34:48;5.80;99.90
48264;DHT22;34086;51.076;13.722;2023-04-08T03:35:50;5.80;99.90
48264;DHT22;34086;51.076;13.722;2023-04-08T03:36:51;5.80;99.90
48264;DHT22;34086;51.076;13.722;2023-04-08T03:37:51;5.90;99.90
48264;DHT22;34086;51.076;13.722;2023-04-08T03:38:52;5.90;99.90
48264;DHT22;34086;51.076;13.722;2023-04-08T03:39:53;5.90;99.90
48264;DHT22;34086;51.076;13.722;2023-04-08T03:40:54;5.90;99.90
48264;DHT22;34086;51.076;13.722;2023-04-08T03:41:55;5.90;99.90
48264;DHT22;34086;51.076;13.722;2023-04-08T03:42:55;5.90;99.90
48264;DHT22;34086;51.076;13.722;2023-04-08T03:43:56;5.90;99.90
48264;DHT22;34086;51.076;13.722;2023-04-08T03:44:57;5.90;99.90
48264;DHT22;34086;51.076;13.722;2023-04-08T03:45:58;5.90;99.90
48264;DHT22;34086;51.076;13.722;2023-04-08T03:46:58;5.90;99.90
48264;DHT22;34086;51.076;13.722;2023-04-08T03:47:59;5.90;99.90
48264;DHT22;34086;51.076;13.722;2023-04-08T03:49:00;5.90;99.90
48264;DHT22;34086;51.076;13.722;2023-04-08T03:50:00;5.90;99.90
48264;DHT22;34086;51.076;13.722;2023-04-08T03:51:01;5.90;99.90
48264;DHT22;34086;51.076;13.722;2023-04-08T03:52:01;5.90;99.90
48264;DHT22;34086;51.076;13.722;2023-04-08T03:53:02;5.90;99.90
48264;DHT22;34086;51.076;13.722;2023-04-08T03:54:02;5.90;99.90
48264;DHT22;34086;51.076;13.722;2023-04-08T03:55:03;5.90;99.90
48264;DHT22;34086;51.076;13.722;2023-04-08T03:56:04;5.90;99.90
48264;DHT22;34086;51.076;13.722;2023-04-08T03:57:05;5.90;99.90
48264;DHT22;34086;51.076;13.722;2023-04-08T03:58:06;5.90;99.90
48264;DHT22;34086;51.076;13.722;2023-04-08T03:59:06;5.90;99.90
48264;DHT22;34086;51.076;13.722;2023-04-08T04:00:07;5.90;99.90
48264;DHT22;34086;51.076;13.722;2023-04-08T04:01:12;5.90;99.90
48264;DHT22;34086;51.076;13.722;2023-04-08T04:02:13;5.90;99.90
48264;DHT22;34086;51.076;13.722;2023-04-08T04:03:13;5.90;99.90
48264;DHT22;34086;51.076;13.722;2023-04-08T04:04:14;5.90;99.90
48264;DHT22;34086;51.076;13.722;2023-04-08T04:05:15;5.90;99.90
48264;DHT22;34086;51.076;13.722;2023-04-08T04:06:16;5.90;99.90
48264;DHT22;34086;51.076;13.722;2023-04-08T04:07:16;5.90;99.90
48264;DHT22;34086;51.076;13.722;2023-04-08T04:08:17;5.90;99.90
48264;DHT22;34086;51.076;13.722;2023-04-08T04:09:18;5.90;99.90
48264;DHT22;34086;51.076;13.722;2023-04-08T04:10:18;5.90;99.90
48264;DHT22;34086;51.076;13.722;2023-04-08T04:11:19;5.90;99.90
48264;DHT22;34086;51.076;13.722;2023-04-08T04:12:21;5.90;99.90
48264;DHT22;34086;51.076;13.722;2023-04-08T04:13:22;5.90;99.90
48264;DHT22;34086;51.076;13.722;2023-04-08T04:14:22;5.90;99.90
48264;DHT22;34086;51.076;13.722;2023-04-08T04:15:23;5.90;99.90
48264;DHT22;34086;51.076;13.722;2023-04-08T04:16:24;5.90;99.90
48264;DHT22;34086;51.076;13.722;2023-04-08T04:17:24;5.90;99.90
48264;DHT22;34086;51.076;13.722;2023-04-08T04:18:25;5.90;99.90
48264;DHT22;34086;51.076;13.722;2023-04-08T04:19:29;5.80;99.90
48264;DHT22;34086;51.076;13.722;2023-04-08T04:20:30;5.80;99.90
48264;DHT22;34086;51.076;13.722;2023-04-08T04:21:31;5.80;99.90
48264;DHT22;34086;51.076;13.722;2023-04-08T04:22:32;5.90;99.90
48264;DHT22;34086;51.076;13.722;2023-04-08T04:23:33;5.80;99.90
48264;DHT22;34086;51.076;13.722;2023-04-08T04:24:33;5.80;99.90
48264;DHT22;34086;51.076;13.722;2023-04-08T04:25:34;5.80;99.90
48264;DHT22;34086;51.076;13.722;2023-04-08T04:26:34;5.80;99.90
48264;DHT22;34086;51.076;13.722;2023-04-08T04:27:35;5.80;99.90
48264;DHT22;34086;51.076;13.722;2023-04-08T04:28:36;5.70;99.90
48264;DHT22;34086;51.076;13.722;2023-04-08T04:29:37;5.80;99.90
48264;DHT22;34086;51.076;13.722;2023-04-08T04:30:38;5.80;99.90
48264;DHT22;34086;51.076;13.722;2023-04-08T04:31:39;5.70;99.90
48264;DHT22;34086;51.076;13.722;2023-04-08T04:32:41;5.80;99.90
48264;DHT22;34086;51.076;13.722;2023-04-08T04:33:42;5.80;99.90
48264;DHT22;34086;51.076;13.722;2023-04-08T04:34:42;5.80;99.90
48264;DHT22;34086;51.076;13.722;2023-04-08T04:35:43;5.80;99.90
48264;DHT22;34086;51.076;13.722;2023-04-08T04:36:44;5.80;99.90
48264;DHT22;34086;51.076;13.722;2023-04-08T04:37:45;5.80;99.90
48264;DHT22;34086;51.076;13.722;2023-04-08T04:38:46;5.80;99.90
48264;DHT22;34086;51.076;13.722;2023-04-08T04:39:48;5.80;99.90
48264;DHT22;34086;51.076;13.722;2023-04-08T04:40:49;5.80;99.90
48264;DHT22;34086;51.076;13.722;2023-04-08T04:41:49;5.80;99.90
48264;DHT22;34086;51.076;13.722;2023-04-08T04:42:50;5.80;99.90
48264;DHT22;34086;51.076;13.722;2023-04-08T04:43:51;5.80;99.90
48264;DHT22;34086;51.076;13.722;2023-04-08T04:44:52;5.80;99.90
48264;DHT22;34086;51.076;13.722;2023-04-08T04:45:54;5.80;99.90
48264;DHT22;34086;51.076;13.722;2023-04-08T04:46:56;5.80;99.90
48264;DHT22;34086;51.076;13.722;2023-04-08T04:47:59;5.80;99.90
48264;DHT22;34086;51.076;13.722;2023-04-08T04:49:00;5.80;99.90
48264;DHT22;34086;51.076;13.722;2023-04-08T04:50:01;5.80;99.90
48264;DHT22;34086;51.076;13.722;2023-04-08T04:51:02;5.80;99.90
48264;DHT22;34086;51.076;13.722;2023-04-08T04:52:04;5.80;99.90
48264;DHT22;34086;51.076;13.722;2023-04-08T04:53:04;5.80;99.90
48264;DHT22;34086;51.076;13.722;2023-04-08T04:54:05;5.80;99.90
48264;DHT22;34086;51.076;13.722;2023-04-08T04:55:06;5.80;99.90
48264;DHT22;34086;51.076;13.722;2023-04-08T04:56:07;5.80;99.90
48264;DHT22;34086;51.076;13.722;2023-04-08T04:57:07;5.70;99.90
48264;DHT22;34086;51.076;13.722;2023-04-08T04:58:08;5.80;99.90
48264;DHT22;34086;51.076;13.722;2023-04-08T04:59:08;5.80;99.90
48264;DHT22;34086;51.076;13.722;2023-04-08T05:00:09;5.80;99.90
48264;DHT22;34086;51.076;13.722;2023-04-08T05:01:10;5.80;99.90
48264;DHT22;34086;51.076;13.722;2023-04-08T05:02:10;5.80;99.90
48264;DHT22;34086;51.076;13.722;2023-04-08T05:03:11;5.80;99.90
48264;DHT22;34086;51.076;13.722;2023-04-08T05:04:12;5.80;99.90
48264;DHT22;34086;51.076;13.722;2023-04-08T05:05:13;5.90;99.90
48264;DHT22;34086;51.076;13.722;2023-04-08T05:06:13;5.90;99.90
48264;DHT22;34086;51.076;13.722;2023-04-08T05:07:14;5.80;99.90
48264;DHT22;34086;51.076;13.722;2023-04-08T05:08:14;5.90;99.90
48264;DHT22;34086;51.076;13.722;2023-04-08T05:09:15;5.90;99.90
48264;DHT22;34086;51.076;13.722;2023-04-08T05:10:15;5.80;99.90
48264;DHT22;34086;51.076;13.722;2023-04-08T05:11:16;5.80;99.90
48264;DHT22;34086;51.076;13.722;2023-04-08T05:12:17;5.80;99.90
48264;DHT22;34086;51.076;13.722;2023-04-08T05:13:19;5.80;99.90
48264;DHT22;34086;51.076;13.722;2023-04-08T05:14:20;5.80;99.90
48264;DHT22;34086;51.076;13.722;2023-04-08T05:15:21;5.80;99.90
48264;DHT22;34086;51.076;13.722;2023-04-08T05:16:21;5.80;99.90
48264;DHT22;34086;51.076;13.722;2023-04-08T05:17:22;5.80;99.90
48264;DHT22;34086;51.076;13.722;2023-04-08T05:18:22;5.80;99.90
48264;DHT22;34086;51.076;13.722;2023-04-08T05:19:23;5.70;99.90
48264;DHT22;34086;51.076;13.722;2023-04-08T05:20:23;5.80;99.90
48264;DHT22;34086;51.076;13.722;2023-04-08T05:21:24;5.80;99.90
48264;DHT22;34086;51.076;13.722;2023-04-08T05:22:25;5.80;99.90
48264;DHT22;34086;51.076;13.722;2023-04-08T05:23:26;5.80;99.90
48264;DHT22;34086;51.076;13.722;2023-04-08T05:24:26;5.90;99.90
48264;DHT22;34086;51.076;13.722;2023-04-08T05:25:27;5.90;99.90
48264;DHT22;34086;51.076;13.722;2023-04-08T05:26:28;5.90;99.90
48264;DHT22;34086;51.076;13.722;2023-04-08T05:27:32;5.90;99.90
48264;DHT22;34086;51.076;13.722;2023-04-08T05:28:34;5.90;99.90
48264;DHT22;34086;51.076;13.722;2023-04-08T05:29:34;5.90;99.90
48264;DHT22;34086;51.076;13.722;2023-04-08T05:30:35;5.90;99.90
48264;DHT22;34086;51.076;13.722;2023-04-08T05:31:35;5.90;99.90
48264;DHT22;34086;51.076;13.722;2023-04-08T05:32:36;6.00;99.90
48264;DHT22;34086;51.076;13.722;2023-04-08T05:33:36;5.90;99.90
48264;DHT22;34086;51.076;13.722;2023-04-08T05:34:37;5.90;99.90
48264;DHT22;34086;51.076;13.722;2023-04-08T05:35:37;5.90;99.90
48264;DHT22;34086;51.076;13.722;2023-04-08T05:36:38;6.00;99.90
48264;DHT22;34086;51.076;13.722;2023-04-08T05:37:39;6.00;99.90
48264;DHT22;34086;51.076;13.722;2023-04-08T05:38:39;6.00;99.90
48264;DHT22;34086;51.076;13.722;2023-04-08T05:39:41;6.00;99.90
48264;DHT22;34086;51.076;13.722;2023-04-08T05:40:42;6.00;99.90
48264;DHT22;34086;51.076;13.722;2023-04-08T05:41:43;6.00;99.90
48264;DHT22;34086;51.076;13.722;2023-04-08T05:42:44;6.00;99.90
48264;DHT22;34086;51.076;13.722;2023-04-08T05:43:44;6.10;99.90
48264;DHT22;34086;51.076;13.722;2023-04-08T05:44:45;6.10;99.90
48264;DHT22;34086;51.076;13.722;2023-04-08T05:45:45;6.10;99.90
48264;DHT22;34086;51.076;13.722;2023-04-08T05:46:46;6.10;99.90
48264;DHT22;34086;51.076;13.722;2023-04-08T05:47:46;6.10;99.90
48264;DHT22;34086;51.076;13.722;2023-04-08T05:48:47;6.10;99.90
48264;DHT22;34086;51.076;13.722;2023-04-08T05:49:48;6.10;99.90
48264;DHT22;34086;51.076;13.722;2023-04-08T05:50:48;6.10;99.90
48264;DHT22;34086;51.076;13.722;2023-04-08T05:51:49;6.10;99.90
48264;DHT22;34086;51.076;13.722;2023-04-08T05:52:49;6.10;99.90
48264;DHT22;34086;51.076;13.722;2023-04-08T05:53:50;6.10;99.90
48264;DHT22;34086;51.076;13.722;2023-04-08T05:54:51;6.10;99.90
48264;DHT22;34086;51.076;13.722;2023-04-08T05:55:51;6.20;99.90
48264;DHT22;34086;51.076;13.722;2023-04-08T05:56:52;6.20;99.90
48264;DHT22;34086;51.076;13.722;2023-04-08T05:57:52;6.20;99.90
48264;DHT22;34086;51.076;13.722;2023-04-08T05:58:53;6.20;99.90
48264;DHT22;34086;51.076;13.722;2023-04-08T05:59:53;6.30;99.90
48264;DHT22;34086;51.076;13.722;2023-04-08T06:00:54;6.30;99.90
48264;DHT22;34086;51.076;13.722;2023-04-08T06:01:55;6.30;99.90
48264;DHT22;34086;51.076;13.722;2023-04-08T06:02:56;6.30;99.90
48264;DHT22;34086;51.076;13.722;2023-04-08T06:03:56;6.40;99.90
48264;DHT22;34086;51.076;13.722;2023-04-08T06:04:57;6.40;99.90
48264;DHT22;34086;51.076;13.722;2023-04-08T06:05:57;6.40;99.90
48264;DHT22;34086;51.076;13.722;2023-04-08T06:06:58;6.40;99.90
48264;DHT22;34086;51.076;13.722;2023-04-08T06:08:01;6.50;99.90
48264;DHT22;34086;51.076;13.722;2023-04-08T06:09:02;6.50;99.90
48264;DHT22;34086;51.076;13.722;2023-04-08T06:10:03;6.50;99.90
48264;DHT22;34086;51.076;13.722;2023-04-08T06:11:06;6.50;99.90
48264;DHT22;34086;51.076;13.722;2023-04-08T06:12:07;6.50;99.90
48264;DHT22;34086;51.076;13.722;2023-04-08T06:13:07;6.60;99.90
48264;DHT22;34086;51.076;13.722;2023-04-08T06:14:08;6.60;99.90
48264;DHT22;34086;51.076;13.722;2023-04-08T06:15:08;6.60;99.90
48264;DHT22;34086;51.076;13.722;2023-04-08T06:16:14;6.60;99.90
48264;DHT22;34086;51.076;13.722;2023-04-08T06:17:16;6.60;99.90
48264;DHT22;34086;51.076;13.722;2023-04-08T06:18:16;6.70;99.90
48264;DHT22;34086;51.076;13.722;2023-04-08T06:19:17;6.70;99.90
48264;DHT22;34086;51.076;13.722;2023-04-08T06:20:18;6.70;99.90
48264;DHT22;34086;51.076;13.722;2023-04-08T06:21:18;6.70;99.90
48264;DHT22;34086;51.076;13.722;2023-04-08T06:22:19;6.70;99.90
48264;DHT22;34086;51.076;13.722;2023-04-08T06:23:19;6.70;99.90
48264;DHT22;34086;51.076;13.722;2023-04-08T06:24:20;6.70;99.90
48264;DHT22;34086;51.076;13.722;2023-04-08T06:25:21;6.70;99.90
48264;DHT22;34086;51.076;13.722;2023-04-08T06:26:21;6.80;99.90
48264;DHT22;34086;51.076;13.722;2023-04-08T06:27:22;6.80;99.90
48264;DHT22;34086;51.076;13.722;2023-04-08T06:28:23;6.80;99.90
48264;DHT22;34086;51.076;13.722;2023-04-08T06:29:23;6.80;99.90
48264;DHT22;34086;51.076;13.722;2023-04-08T06:30:24;6.90;99.90